createdAt,value
2023-06-28T00:17:47.095Z,28.27
2023-06-28T00:37:47.044Z,28.24
2023-06-28T00:57:47.007Z,28.26
2023-06-28T01:17:47.022Z,28.27
2023-06-28T01:37:46.992Z,28.28
2023-06-28T01:57:46.943Z,28.29
2023-06-28T02:17:46.942Z,28.3
2023-06-28T02:37:46.898Z,28.31
2023-06-28T02:57:46.867Z,28.32
2023-06-28T03:37:46.832Z,28.34
2023-06-28T03:57:46.806Z,28.35
2023-06-28T04:17:46.793Z,28.36
2023-06-28T04:37:46.760Z,28.49
2023-06-28T04:57:46.735Z,28.43
2023-06-28T05:17:46.789Z,28.43
2023-06-28T05:37:46.676Z,28.43
2023-06-28T06:17:46.662Z,28.62
2023-06-28T06:37:46.611Z,28.44
2023-06-28T06:57:46.560Z,28.55
2023-06-28T07:17:46.582Z,28.59
2023-06-28T07:37:46.513Z,28.56
2023-06-28T07:57:46.457Z,28.77
2023-06-28T08:17:46.448Z,28.52
2023-06-28T09:17:46.372Z,28.5
2023-06-28T09:37:46.306Z,28.31
2023-06-28T09:57:46.277Z,28.3
2023-06-28T10:17:46.267Z,28.74
2023-06-28T10:37:47.455Z,28.3
2023-06-28T10:57:46.162Z,28.27
2023-06-28T11:17:46.206Z,28.25
2023-06-28T11:37:46.106Z,28.24
2023-06-28T11:57:46.097Z,28.22
2023-06-28T12:57:45.965Z,28.15
2023-06-28T13:17:45.967Z,28.13
2023-06-28T13:37:45.967Z,28.11
2023-06-28T13:57:45.888Z,28.1
2023-06-28T14:17:45.852Z,28.07
2023-06-28T14:37:45.803Z,28.03
2023-06-28T14:57:45.773Z,28.01
2023-06-28T15:17:45.746Z,27.99
2023-06-28T15:57:45.723Z,27.95
2023-06-28T16:17:45.659Z,27.94
2023-06-28T16:37:45.602Z,28.37
2023-06-28T17:17:47.395Z,28.02
2023-06-28T17:37:45.508Z,28.19
2023-06-28T17:57:45.502Z,27.95
2023-06-28T18:17:45.493Z,27.87
2023-06-28T18:37:45.417Z,28.24
2023-06-28T19:17:45.360Z,27.87
2023-06-28T19:37:45.309Z,27.88
2023-06-28T19:57:45.292Z,27.9
2023-06-28T20:17:45.240Z,27.91
2023-06-28T20:37:45.227Z,27.92
2023-06-28T20:57:45.255Z,27.93
2023-06-28T21:17:45.193Z,27.94
2023-06-28T21:37:45.138Z,27.95
2023-06-28T21:57:45.093Z,27.96
2023-06-28T22:17:45.122Z,28.15
2023-06-28T22:37:45.043Z,28.17
2023-06-28T22:57:45.045Z,28.13
2023-06-28T23:17:45.052Z,28.44
2023-06-28T23:37:44.939Z,28.04
